Weather at Long Segar Airstrip

Public forecast

Using degrees Celsius for public forecast. Weather courtesy of forecast.io.

Closest aviation weather report (METAR) to Long Segar Airstrip

Closest report is Sibu Airport, 302.9 nm (561.1 km) WNW.

2023/03/27 14:00 (retrieved 51 minutes ago)

WBGS 271400Z 14003KT 110V200 9999 SCT018 25/23 Q1010

Closest aviation forecast (TAF) to Long Segar Airstrip

Closest forecast is Aji Pangeran Tumenggung Pranoto International Airport, 75.1 nm (139.0 km) SSE.

2023/03/27 12:00 (retrieved 3 hours ago)

TAF WALS 271100Z 2712/2724 00000KT 8000 SCT017 TEMPO 2712/2715 6000 -RA FEW016CB SCT017